Time;durP1;ratioP1;P1;durP2;ratioP2;P2;SDS_P1;SDS_P2;PMS_P1;PMS_P2;Temp;Humidity;BMP_temperature;BMP_pressure;BME280_temperature;BME280_humidity;BME280_pressure;Samples;Min_cycle;Max_cycle;Signal;HPM_P1;HPM_P2
2024/04/12 00:01:47;;;;;;;24.98;16.17;;;;;;;12.58;100.00;103002.63;5391975;26;20004;-76
2024/04/12 00:04:17;;;;;;;21.67;14.70;;;;;;;12.58;100.00;103008.03;5392124;26;20040;-77
2024/04/12 00:06:52;;;;;;;24.48;17.05;;;;;;;12.55;100.00;102998.56;5337888;26;20479;-75
2024/04/12 00:09:23;;;;;;;23.80;15.60;;;;;;;12.54;100.00;102996.09;5388222;26;20005;-78
2024/04/12 00:11:50;;;;;;;23.80;16.13;;;;;;;12.53;100.00;102989.91;5365618;26;20020;-75
2024/04/12 00:14:16;;;;;;;21.02;14.50;;;;;;;12.52;100.00;103000.88;5341078;26;20449;-75
2024/04/12 00:16:43;;;;;;;21.58;15.85;;;;;;;12.51;100.00;102999.22;5401273;26;20004;-73
2024/04/12 00:19:18;;;;;;;22.52;14.98;;;;;;;12.51;100.00;102988.47;5401878;26;20004;-74
2024/04/12 00:22:05;;;;;;;22.00;14.68;;;;;;;12.49;100.00;102991.41;5388714;26;20019;-76
2024/04/12 00:24:36;;;;;;;27.52;15.10;;;;;;;12.49;100.00;102987.91;5392402;26;20058;-75
2024/04/12 00:27:05;;;;;;;18.90;13.43;;;;;;;12.48;100.00;102983.56;5364072;26;19996;-75
2024/04/12 00:29:36;;;;;;;20.67;13.18;;;;;;;12.48;100.00;102991.63;5384659;26;20011;-78
2024/04/12 00:32:13;;;;;;;21.48;14.00;;;;;;;12.48;100.00;102980.88;5393721;26;20953;-75
2024/04/12 00:34:47;;;;;;;18.60;13.73;;;;;;;12.47;100.00;102981.94;5374931;26;20019;-76
2024/04/12 00:37:16;;;;;;;20.60;12.90;;;;;;;12.47;100.00;102982.75;5367120;26;20000;-73
2024/04/12 00:39:48;;;;;;;17.50;12.00;;;;;;;12.47;100.00;102972.00;5424510;26;20004;-76
2024/04/12 00:42:24;;;;;;;19.52;13.10;;;;;;;12.46;100.00;102970.38;5367997;26;20010;-77
2024/04/12 00:44:50;;;;;;;17.17;12.25;;;;;;;12.46;100.00;102969.53;5387682;26;20004;-74
2024/04/12 00:47:20;;;;;;;15.25;11.35;;;;;;;12.45;100.00;102973.25;5373701;26;20015;-76
2024/04/12 00:49:50;;;;;;;18.75;11.73;;;;;;;12.45;100.00;102975.94;5360944;26;20019;-75
2024/04/12 00:52:22;;;;;;;15.35;10.85;;;;;;;12.41;100.00;102966.72;5330921;26;20032;-76
2024/04/12 00:55:03;;;;;;;16.98;10.95;;;;;;;12.42;100.00;102962.97;5367725;26;20574;-75
2024/04/12 00:57:35;;;;;;;17.55;12.20;;;;;;;12.40;100.00;102968.59;5349583;26;20018;-76
2024/04/12 01:00:10;;;;;;;17.88;11.75;;;;;;;12.40;100.00;102971.28;5390511;26;20486;-77
2024/04/12 01:02:40;;;;;;;18.52;12.10;;;;;;;12.38;100.00;102961.78;5357650;26;20110;-77
2024/04/12 01:05:13;;;;;;;16.63;11.13;;;;;;;12.38;100.00;102964.47;5384009;26;20004;-76
2024/04/12 01:07:48;;;;;;;16.65;10.68;;;;;;;12.39;100.00;102969.59;5398123;26;20687;-76
2024/04/12 01:10:24;;;;;;;13.23;8.88;;;;;;;12.38;100.00;102975.22;5389076;26;20052;-77
2024/04/12 01:12:57;;;;;;;21.30;10.43;;;;;;;12.38;100.00;102969.84;5345542;26;20009;-77
2024/04/12 01:15:29;;;;;;;13.55;8.88;;;;;;;12.38;100.00;102961.78;5369256;26;20004;-77
2024/04/12 01:17:56;;;;;;;14.07;9.48;;;;;;;12.37;100.00;102966.34;5397114;26;20012;-74
2024/04/12 01:20:22;;;;;;;15.23;9.68;;;;;;;12.37;100.00;102971.72;5395054;26;20715;-76
2024/04/12 01:22:49;;;;;;;15.20;10.65;;;;;;;12.37;100.00;102963.66;5390359;26;20015;-73
2024/04/12 01:25:15;;;;;;;15.23;8.75;;;;;;;12.37;100.00;102965.53;5364670;26;20000;-74
2024/04/12 01:27:41;;;;;;;;;;;;;;;12.38;100.00;102962.59;5324834;26;20004;-75
2024/04/12 01:30:07;;;;;;;15.25;8.65;;;;;;;12.38;100.00;102961.78;5369382;26;19925;-75
2024/04/12 01:32:33;;;;;;;21.40;12.73;;;;;;;12.39;100.00;102955.34;5391762;26;20015;-74
2024/04/12 01:35:03;;;;;;;26.33;13.88;;;;;;;12.42;100.00;102957.59;5345739;26;20901;-75
2024/04/12 01:37:30;;;;;;;20.02;13.05;;;;;;;12.44;100.00;102955.50;5385359;26;20008;-76
2024/04/12 01:40:01;;;;;;;;;;;;;;;12.44;100.00;102942.06;5361204;26;20050;-76
2024/04/12 01:42:30;;;;;;;23.20;12.63;;;;;;;12.42;100.00;102949.53;5388035;26;20387;-76
2024/04/12 01:45:14;;;;;;;25.65;14.98;;;;;;;12.44;100.00;102948.25;5383260;26;20011;-76
2024/04/12 01:47:45;;;;;;;23.85;15.68;;;;;;;12.47;100.00;102944.31;5348729;26;20023;-77
2024/04/12 01:50:21;;;;;;;24.55;15.10;;;;;;;12.46;100.00;102939.97;5368168;26;20019;-77
2024/04/12 01:52:57;;;;;;;28.33;16.25;;;;;;;12.49;100.00;102942.19;5386368;26;20010;-76
2024/04/12 01:55:27;;;;;;;26.13;16.60;;;;;;;12.52;100.00;102947.09;5363674;26;20513;-76
2024/04/12 01:57:55;;;;;;;25.13;16.13;;;;;;;12.50;100.00;102951.91;5374847;26;20011;-76
2024/04/12 02:00:25;;;;;;;27.75;16.65;;;;;;;12.52;100.00;102945.25;5392903;26;21126;-76
2024/04/12 02:02:53;;;;;;;25.58;15.77;;;;;;;12.52;100.00;102945.25;5368305;26;20930;-76
2024/04/12 02:05:34;;;;;;;24.65;17.13;;;;;;;12.53;100.00;102951.44;5374868;26;20014;-77
2024/04/12 02:08:08;;;;;;;25.83;16.52;;;;;;;12.54;100.00;102953.09;5364276;26;20001;-76
2024/04/12 02:10:41;;;;;;;23.75;16.08;;;;;;;12.54;100.00;102953.09;5402267;26;20493;-77
2024/04/12 02:13:10;;;;;;;24.90;15.75;;;;;;;12.54;100.00;102953.09;5361865;26;20016;-77
2024/04/12 02:15:55;;;;;;;25.15;15.18;;;;;;;12.52;100.00;102944.41;5353592;26;20094;-75
2024/04/12 02:18:22;;;;;;;21.50;15.20;;;;;;;12.52;100.00;102941.72;5391944;26;20019;-76
2024/04/12 02:20:51;;;;;;;24.23;15.55;;;;;;;12.52;100.00;102945.25;5389793;26;20031;-75
2024/04/12 02:23:21;;;;;;;22.55;13.93;;;;;;;12.52;100.00;102939.03;5401745;26;20015;-76
2024/04/12 02:25:49;;;;;;;21.95;14.77;;;;;;;12.52;100.00;102936.34;5334801;26;20059;-76
2024/04/12 02:28:16;;;;;;;22.40;15.13;;;;;;;12.52;100.00;102939.03;5397335;26;20081;-73
2024/04/12 02:30:53;;;;;;;21.30;14.82;;;;;;;12.51;100.00;102934.72;5367971;26;20044;-75
2024/04/12 02:33:21;;;;;;;22.00;14.13;;;;;;;12.51;100.00;102932.84;5365044;26;20062;-76
2024/04/12 02:36:03;;;;;;;22.77;15.50;;;;;;;12.51;100.00;102926.66;5367812;26;20019;-75
2024/04/12 02:38:29;;;;;;;21.17;13.70;;;;;;;12.50;100.00;102920.47;5369365;26;20557;-75
2024/04/12 02:40:58;;;;;;;20.67;13.38;;;;;;;12.49;100.00;102923.38;5333598;26;20563;-73
2024/04/12 02:43:29;;;;;;;26.60;14.02;;;;;;;12.49;100.00;102920.69;5398096;26;20003;-76
2024/04/12 02:45:57;;;;;;;20.30;13.43;;;;;;;12.50;100.00;102930.41;5361164;26;20012;-76
2024/04/12 02:48:23;;;;;;;17.60;12.43;;;;;;;12.49;100.00;102918.84;5372263;26;20044;-72
2024/04/12 02:50:53;;;;;;;21.40;12.98;;;;;;;12.50;100.00;102933.91;5344698;26;20007;-73
2024/04/12 02:53:24;;;;;;;17.73;12.15;;;;;;;12.48;100.00;102922.56;5393127;26;20013;-72
2024/04/12 02:56:01;;;;;;;15.30;11.70;;;;;;;12.48;100.00;102924.44;5375542;26;20014;-73
2024/04/12 02:58:29;;;;;;;16.75;10.32;;;;;;;12.47;100.00;102920.94;5384442;26;20461;-74
2024/04/12 03:00:59;;;;;;;16.67;11.18;;;;;;;12.47;100.00;102914.75;5410817;26;20000;-75
2024/04/12 03:03:26;;;;;;;15.45;9.98;;;;;;;12.48;100.00;102914.50;5400817;26;20040;-74
2024/04/12 03:06:00;;;;;;;16.27;10.65;;;;;;;12.48;100.00;102911.00;5342089;26;20032;-73
2024/04/12 03:08:26;;;;;;;14.68;10.02;;;;;;;12.47;100.00;102915.56;5340363;26;20505;-75
2024/04/12 03:10:57;;;;;;;15.10;10.55;;;;;;;12.46;100.00;102905.88;5362888;26;20074;-73
2024/04/12 03:13:23;;;;;;;16.02;10.20;;;;;;;12.47;100.00;102904.81;5367347;26;19999;-73
2024/04/12 03:15:49;;;;;;;15.13;10.18;;;;;;;12.48;100.00;102911.00;5392136;26;20008;-74
2024/04/12 03:18:15;;;;;;;18.63;10.05;;;;;;;12.48;100.00;102906.44;5370541;26;20008;-75
2024/04/12 03:20:41;;;;;;;15.18;9.88;;;;;;;12.46;100.00;102902.34;5337773;26;20039;-76
2024/04/12 03:23:07;;;;;;;15.45;10.25;;;;;;;12.46;100.00;102911.25;5393847;26;20004;-73
2024/04/12 03:25:38;;;;;;;17.73;10.27;;;;;;;12.44;100.00;102902.56;5363975;26;20090;-73
2024/04/12 03:28:04;;;;;;;19.38;10.02;;;;;;;12.44;100.00;102910.63;5349864;26;20008;-74
2024/04/12 03:30:31;;;;;;;16.60;10.25;;;;;;;12.46;100.00;102910.41;5360565;26;20468;-75
2024/04/12 03:33:02;;;;;;;19.08;11.10;;;;;;;12.45;100.00;102903.38;5368408;26;20039;-74
2024/04/12 03:35:33;;;;;;;19.77;11.75;;;;;;;12.44;100.00;102901.75;5387992;26;20024;-77
2024/04/12 03:40:45;;;;;;;18.73;11.38;;;;;;;12.43;100.00;102902.81;5369815;26;20014;-76
2024/04/12 03:43:14;;;;;;;16.42;10.23;;;;;;;12.42;100.00;102903.84;5363988;26;20097;-75
2024/04/12 03:45:39;;;;;;;;;;;;;;;12.42;100.00;102902.00;5345746;26;20012;-74
2024/04/12 03:48:13;;;;;;;16.52;9.95;;;;;;;12.39;100.00;102899.75;5364427;26;19926;-76
2024/04/12 03:50:41;;;;;;;23.10;12.45;;;;;;;12.39;100.00;102893.56;5361572;26;20004;-79
2024/04/12 03:53:16;;;;;;;20.27;11.80;;;;;;;12.37;100.00;102892.97;5336635;26;20007;-76
2024/04/12 03:55:45;;;;;;;26.50;13.38;;;;;;;12.33;100.00;102887.25;5379132;26;20022;-76
2024/04/12 03:58:17;;;;;;;23.15;13.75;;;;;;;12.33;100.00;102897.16;5368623;26;20008;-75
2024/04/12 04:00:45;;;;;;;25.58;13.63;;;;;;;12.30;100.00;102893.06;5373897;26;20011;-76
2024/04/12 04:03:30;;;;;;;24.02;13.13;;;;;;;12.28;100.00;102890.63;5337588;26;20005;-76
2024/04/12 04:06:11;;;;;;;26.10;13.40;;;;;;;12.23;100.00;102895.84;5338082;26;20137;-74
2024/04/12 04:08:48;;;;;;;24.23;15.32;;;;;;;12.19;100.00;102883.94;5399073;21;20870;-73
2024/04/12 04:11:18;;;;;;;24.13;13.75;;;;;;;12.23;100.00;102889.66;5289344;26;20004;-74
2024/04/12 04:13:46;;;;;;;22.80;13.20;;;;;;;12.21;100.00;102889.88;5341795;26;20008;-73
2024/04/12 04:16:16;;;;;;;26.60;14.57;;;;;;;12.23;100.00;102898.53;5329454;26;20020;-72
2024/04/12 04:18:48;;;;;;;30.10;15.20;;;;;;;12.21;100.00;102887.19;5303515;26;20009;-73
2024/04/12 04:21:14;;;;;;;25.17;13.55;;;;;;;12.20;100.00;102890.13;5309817;26;20469;-73
2024/04/12 04:23:42;;;;;;;30.65;15.63;;;;;;;12.18;100.00;102884.94;5314941;26;20987;-73
2024/04/12 04:26:08;;;;;;;27.10;14.10;;;;;;;12.17;100.00;102877.13;5325044;26;20012;-74
2024/04/12 04:28:35;;;;;;;28.75;15.05;;;;;;;12.18;100.00;102882.28;5324959;26;20079;-74
2024/04/12 04:31:05;;;;;;;29.45;16.20;;;;;;;12.17;100.00;102880.63;5308982;26;20017;-74
2024/04/12 04:33:36;;;;;;;29.50;15.90;;;;;;;12.17;100.00;102879.81;5329699;26;20083;-73
2024/04/12 04:36:08;;;;;;;29.30;15.90;;;;;;;12.16;100.00;102886.25;5335767;26;20005;-74
2024/04/12 04:38:36;;;;;;;36.63;17.88;;;;;;;12.15;100.00;102885.44;5300215;26;20018;-74
2024/04/12 04:41:06;;;;;;;31.30;16.77;;;;;;;12.15;100.00;102889.97;5296043;26;20460;-73
2024/04/12 04:43:33;;;;;;;30.92;17.13;;;;;;;12.15;100.00;102890.78;5340198;26;20752;-74
2024/04/12 04:46:26;;;;;;;33.13;17.25;;;;;;;12.16;100.00;102892.44;5337044;26;20079;-74
2024/04/12 04:48:56;;;;;;;35.70;17.88;;;;;;;12.17;100.00;102896.75;5319822;26;20025;-74
2024/04/12 04:51:25;;;;;;;37.65;17.58;;;;;;;12.17;100.00;102895.94;5306605;26;20021;-72
2024/04/12 04:53:52;;;;;;;37.25;17.90;;;;;;;12.16;100.00;102886.25;5312876;26;20028;-73
2024/04/12 04:56:30;;;;;;;36.85;18.35;;;;;;;12.16;100.00;102900.50;5317731;26;20048;-73
2024/04/12 04:58:56;;;;;;;34.40;17.00;;;;;;;12.16;100.00;102897.81;5304922;26;20026;-74
2024/04/12 05:01:25;;;;;;;36.00;17.50;;;;;;;12.16;100.00;102886.25;5293279;26;20027;-73
2024/04/12 05:03:52;;;;;;;37.67;18.65;;;;;;;12.17;100.00;102882.50;5293572;26;20031;-73
2024/04/12 05:06:27;;;;;;;35.00;18.48;;;;;;;12.16;100.00;102876.31;5308314;26;20480;-73
2024/04/12 05:09:00;;;;;;;38.03;18.67;;;;;;;12.16;100.00;102880.88;5330579;26;20012;-75
2024/04/12 05:11:29;;;;;;;38.53;19.05;;;;;;;12.16;100.00;102881.69;5281506;26;20016;-74
2024/04/12 05:13:57;;;;;;;40.90;19.02;;;;;;;12.17;100.00;102872.56;5278786;26;20070;-74
2024/04/12 05:16:25;;;;;;;35.17;17.42;;;;;;;12.17;100.00;102869.88;5327719;26;20887;-74
2024/04/12 05:18:54;;;;;;;33.63;17.48;;;;;;;12.18;100.00;102859.97;5282029;26;19997;-74
2024/04/12 05:21:20;;;;;;;36.85;19.55;;;;;;;12.20;100.00;102860.56;5311315;26;20012;-74
2024/04/12 05:23:48;;;;;;;;;;;;;;;12.19;100.00;102865.13;5281259;26;20006;-72
2024/04/12 05:26:13;;;;;;;36.28;18.83;;;;;;;12.19;100.00;102857.06;5292538;26;19938;-71
2024/04/12 05:28:43;;;;;;;35.33;19.13;;;;;;;12.19;100.00;102854.38;5307580;26;20058;-74
2024/04/12 05:31:12;;;;;;;38.53;19.92;;;;;;;12.19;100.00;102859.75;5306857;26;20004;-73
2024/04/12 05:33:42;;;;;;;37.08;19.63;;;;;;;12.19;100.00;102859.75;5334516;26;19997;-73
2024/04/12 05:36:10;;;;;;;33.95;19.83;;;;;;;12.18;100.00;102860.78;5318693;26;20066;-73
2024/04/12 05:38:36;;;;;;;36.67;18.42;;;;;;;12.20;100.00;102856.03;5306274;26;20001;-74
2024/04/12 05:41:04;;;;;;;37.05;19.65;;;;;;;12.21;100.00;102856.84;5293527;26;20013;-73
2024/04/12 05:43:30;;;;;;;35.22;19.52;;;;;;;12.21;100.00;102857.66;5278284;26;20017;-72
2024/04/12 05:45:57;;;;;;;;;;;;;;;12.22;100.00;102848.53;5306686;26;20005;-71
2024/04/12 05:48:24;;;;;;;33.88;19.15;;;;;;;12.22;100.00;102847.72;5300525;26;19996;-72
2024/04/12 05:50:58;;;;;;;35.08;19.52;;;;;;;12.22;100.00;102843.16;5279264;26;20096;-73
2024/04/12 05:53:26;;;;;;;36.83;20.17;;;;;;;12.24;100.00;102854.50;5309719;26;20020;-74
2024/04/12 05:56:20;;;;;;;33.65;20.42;;;;;;;12.25;100.00;102847.25;5275980;26;20357;-73
2024/04/12 05:58:37;;;;;;;38.67;21.08;;;;;;;12.26;100.00;102852.41;5336392;26;20009;-73
2024/04/12 06:01:07;;;;;;;30.45;18.58;;;;;;;12.28;100.00;102853.00;5303968;26;20005;-74
2024/04/12 06:03:42;;;;;;;34.95;19.65;;;;;;;12.30;100.00;102858.94;5347731;26;20005;-74
2024/04/12 06:06:08;;;;;;;34.85;20.33;;;;;;;12.33;100.00;102843.41;5288450;26;20009;-72
2024/04/12 06:08:35;;;;;;;33.88;19.77;;;;;;;12.33;100.00;102844.25;5301184;26;20082;-73
2024/04/12 06:11:01;;;;;;;34.78;20.10;;;;;;;12.34;100.00;102843.22;5280256;26;20024;-72
2024/04/12 06:13:26;;;;;;;31.67;18.92;;;;;;;12.37;100.00;102836.53;5298115;26;20019;-72
2024/04/12 06:15:54;;;;;;;34.45;18.98;;;;;;;12.37;100.00;102853.47;5298705;26;20760;-73
2024/04/12 06:18:19;;;;;;;35.28;20.00;;;;;;;12.40;100.00;102844.16;5304030;26;20015;-72
2024/04/12 06:20:45;;;;;;;33.33;20.30;;;;;;;12.39;100.00;102853.25;5289269;26;20001;-73
2024/04/12 06:23:11;;;;;;;33.03;19.02;;;;;;;12.39;100.00;102866.69;5249941;26;20055;-73
2024/04/12 06:25:45;;;;;;;30.85;17.52;;;;;;;12.41;100.00;102864.59;5296924;26;20020;-74
2024/04/12 06:28:12;;;;;;;29.70;17.58;;;;;;;12.42;100.00;102858.19;5301508;26;20005;-74
2024/04/12 06:30:43;;;;;;;28.55;17.92;;;;;;;12.44;100.00;102853.38;5334539;26;20001;-73
2024/04/12 06:33:12;;;;;;;29.52;17.70;;;;;;;12.46;100.00;102860.19;5333289;26;21906;-73
2024/04/12 06:35:40;;;;;;;33.55;18.17;;;;;;;12.49;100.00;102856.19;5281547;26;20037;-73
2024/04/12 06:38:09;;;;;;;30.20;19.15;;;;;;;12.51;100.00;102851.41;5332387;26;20045;-73
2024/04/12 06:40:37;;;;;;;28.08;17.60;;;;;;;12.54;100.00;102856.34;5308523;26;20009;-72
2024/04/12 06:43:07;;;;;;;29.13;17.10;;;;;;;12.55;100.00;102848.03;5276778;26;20066;-73
2024/04/12 06:45:43;;;;;;;26.35;17.02;;;;;;;12.59;100.00;102848.38;5328135;26;20002;-73
2024/04/12 06:48:16;;;;;;;30.50;17.02;;;;;;;12.58;100.00;102841.38;5319233;26;20009;-72
2024/04/12 06:50:56;;;;;;;27.65;16.42;;;;;;;12.60;100.00;102825.00;5315707;26;20029;-72
2024/04/12 06:53:23;;;;;;;26.30;16.27;;;;;;;12.62;100.00;102829.13;5306866;26;20031;-73
2024/04/12 06:55:49;;;;;;;25.73;16.35;;;;;;;12.65;100.00;102825.13;5299611;26;20005;-73
2024/04/12 06:58:18;;;;;;;27.25;16.70;;;;;;;12.65;100.00;102809.81;5292937;26;20874;-75
2024/04/12 07:00:46;;;;;;;26.27;17.48;;;;;;;12.70;100.00;102818.00;5308269;26;20009;-74
2024/04/12 07:03:15;;;;;;;27.52;16.33;;;;;;;12.73;100.00;102817.53;5308714;26;20025;-74
2024/04/12 07:05:48;;;;;;;25.30;14.63;;;;;;;12.75;100.00;102815.44;5303153;26;20005;-73
2024/04/12 07:08:16;;;;;;;26.67;15.55;;;;;;;12.76;100.00;102806.31;5318161;26;20002;-74
2024/04/12 07:10:48;;;;;;;24.83;15.65;;;;;;;12.79;100.00;102807.72;5275872;26;20037;-74
2024/04/12 07:13:21;;;;;;;23.90;14.27;;;;;;;12.84;100.00;102807.84;5301854;26;20013;-74
2024/04/12 07:15:50;;;;;;;25.13;15.98;;;;;;;12.89;100.00;102805.28;5299974;26;20005;-73
2024/04/12 07:18:17;;;;;;;22.58;14.55;;;;;;;12.94;100.00;102807.25;5295323;26;20005;-74
2024/04/12 07:20:48;;;;;;;20.85;13.43;;;;;;;12.99;100.00;102804.66;5300777;26;20081;-73
2024/04/12 07:23:17;;;;;;;21.58;13.70;;;;;;;13.02;100.00;102809.59;5276071;26;20006;-72
2024/04/12 07:25:47;;;;;;;22.23;12.65;;;;;;;13.06;100.00;102816.13;5330930;26;20037;-74
2024/04/12 07:28:13;;;;;;;18.92;12.25;;;;;;;13.07;100.00;102823.13;5273476;26;20031;-72
2024/04/12 07:30:44;;;;;;;19.23;13.02;;;;;;;13.10;100.00;102822.69;5317422;26;20009;-73
2024/04/12 07:33:12;;;;;;;20.42;13.38;;;;;;;13.13;100.00;102822.19;5297158;26;20019;-73
2024/04/12 07:35:48;;;;;;;19.30;12.55;;;;;;;13.12;100.00;102825.94;5323392;26;20001;-75
2024/04/12 07:38:14;;;;;;;22.60;11.80;;;;;;;13.17;100.00;102818.00;5330534;26;20624;-73
2024/04/12 07:40:46;;;;;;;20.30;12.98;;;;;;;13.22;100.00;102818.13;5303216;26;20010;-74
2024/04/12 07:43:12;;;;;;;20.85;13.93;;;;;;;13.25;100.00;102824.91;5335346;26;20019;-73
2024/04/12 07:45:41;;;;;;;20.50;12.13;;;;;;;13.26;100.00;102819.28;5326191;26;20023;-73
2024/04/12 07:50:47;;;;;;;17.08;11.82;;;;;;;13.33;100.00;102811.91;5305698;26;20032;-74
2024/04/12 07:53:25;;;;;;;18.00;12.32;;;;;;;13.34;100.00;102808.19;5298701;26;20016;-73
2024/04/12 07:56:08;;;;;;;15.63;11.43;;;;;;;13.34;100.00;102802.78;5325552;26;20362;-73
2024/04/12 07:58:35;;;;;;;17.08;11.70;;;;;;;13.39;100.00;102800.19;5306419;26;20008;-74
2024/04/12 08:01:15;;;;;;;17.05;11.13;;;;;;;13.40;100.00;102792.91;5314559;26;20002;-74
2024/04/12 08:03:43;;;;;;;15.20;10.73;;;;;;;13.45;100.00;102792.22;5311964;26;20005;-74
2024/04/12 08:06:19;;;;;;;14.98;10.65;;;;;;;13.48;100.00;102791.72;5323654;26;20013;-76
2024/04/12 08:08:46;;;;;;;15.02;10.50;;;;;;;13.52;100.00;102792.91;5252559;26;20020;-74
2024/04/12 08:11:33;;;;;;;16.02;10.00;;;;;;;13.54;100.00;102791.59;5303337;26;20009;-75
2024/04/12 08:14:05;;;;;;;15.13;9.95;;;;;;;13.60;100.00;102789.81;5307663;26;20019;-80
2024/04/12 08:16:46;;;;;;;14.40;8.93;;;;;;;13.64;100.00;102796.38;5313463;26;20010;-79
2024/04/12 08:19:21;;;;;;;13.55;9.15;;;;;;;13.68;100.00;102778.66;5320029;26;20764;-79
2024/04/12 08:21:50;;;;;;;11.88;8.68;;;;;;;13.72;100.00;102779.00;5302708;26;20028;-80
2024/04/12 08:24:22;;;;;;;12.05;8.98;;;;;;;13.71;100.00;102786.28;5312886;26;20012;-79
2024/04/12 08:26:48;;;;;;;;;;;;;;;13.73;100.00;102794.91;5334872;26;20009;-77
2024/04/12 08:29:23;;;;;;;14.30;8.63;;;;;;;13.79;100.00;102783.19;5330860;26;19932;-77
2024/04/12 08:34:43;;;;;;;13.35;8.50;;;;;;;13.81;100.00;102778.38;5352298;26;20051;-78
2024/04/12 08:37:13;;;;;;;12.52;9.20;;;;;;;13.81;100.00;102775.66;5311738;26;20005;-74
2024/04/12 08:39:50;;;;;;;12.23;7.68;;;;;;;13.84;100.00;102774.38;5313746;26;20005;-78
2024/04/12 08:42:16;;;;;;;10.88;7.72;;;;;;;13.92;100.00;102769.41;5320883;26;20016;-78
2024/04/12 08:44:47;;;;;;;11.68;7.28;;;;;;;13.92;100.00;102765.91;5310668;26;20016;-79
2024/04/12 08:50:06;;;;;;;10.43;7.57;;;;;;;14.00;100.00;102764.69;5304295;26;20020;-80
2024/04/12 08:52:43;;;;;;;10.30;6.95;;;;;;;14.01;100.00;102759.06;5313919;26;20005;-80
2024/04/12 08:55:13;;;;;;;10.32;7.00;;;;;;;14.02;100.00;102762.56;5333226;26;20049;-76
2024/04/12 08:57:41;;;;;;;9.15;7.13;;;;;;;14.00;100.00;102756.63;5311641;26;20085;-80
2024/04/12 09:00:17;;;;;;;8.60;6.22;;;;;;;13.98;100.00;102759.56;5246857;26;20009;-78
2024/04/12 09:03:10;;;;;;;8.60;6.28;;;;;;;14.00;100.00;102749.34;5335648;26;20005;-78
2024/04/12 09:05:40;;;;;;;10.25;6.35;;;;;;;14.09;100.00;102755.13;5303381;26;20005;-78
2024/04/12 09:08:17;;;;;;;11.38;6.82;;;;;;;14.16;100.00;102751.25;5325462;26;20033;-79
2024/04/12 09:10:42;;;;;;;10.07;7.03;;;;;;;14.19;100.00;102749.94;5258266;26;20012;-76
2024/04/12 09:13:14;;;;;;;;;;;;;;;14.15;100.00;102751.47;5275902;26;20040;-79
2024/04/12 09:15:45;;;;;;;8.07;6.28;;;;;;;14.19;100.00;102739.16;5266943;26;19934;-75
2024/04/12 09:18:15;;;;;;;9.30;7.13;;;;;;;14.34;100.00;102747.47;5305493;26;20056;-78
2024/04/12 09:20:44;;;;;;;8.00;6.20;;;;;;;14.46;100.00;102744.72;5333160;26;20023;-79
2024/04/12 09:23:14;;;;;;;8.65;6.18;;;;;;;14.62;100.00;102745.75;5277792;26;20001;-77
2024/04/12 09:25:58;;;;;;;9.02;6.45;;;;;;;14.70;100.00;102748.88;5308612;26;20458;-74
2024/04/12 09:28:32;;;;;;;9.15;6.18;;;;;;;14.71;100.00;102755.88;5333544;26;20023;-77
2024/04/12 09:33:50;;;;;;;6.90;5.25;;;;;;;14.62;100.00;102751.16;5291554;26;20005;-77
2024/04/12 09:36:38;;;;;;;8.18;6.18;;;;;;;14.62;100.00;102751.16;5276455;26;20005;-78
2024/04/12 09:39:20;;;;;;;8.93;5.93;;;;;;;14.64;100.00;102749.03;5298818;26;20021;-79
2024/04/12 09:41:56;;;;;;;7.15;5.55;;;;;;;14.57;100.00;102751.09;5312760;26;20009;-77
2024/04/12 09:44:38;;;;;;;7.25;6.20;;;;;;;14.56;100.00;102749.44;5281221;26;20524;-78
2024/04/12 10:37:28;;;;;;;6.55;5.82;;;;;;;14.61;100.00;102731.47;5330682;26;20009;-74
2024/04/12 10:40:04;;;;;;;7.47;5.45;;;;;;;14.61;100.00;102736.03;5254629;26;20382;-75
2024/04/12 10:42:52;;;;;;;7.55;5.00;;;;;;;14.62;100.00;102726.88;5295546;26;20006;-75
2024/04/12 10:45:18;;;;;;;6.15;5.40;;;;;;;14.61;100.00;102714.47;5281961;26;20002;-73
2024/04/12 10:47:47;;;;;;;6.90;4.82;;;;;;;14.61;100.00;102707.19;5277693;26;20017;-75
2024/04/12 10:50:14;;;;;;;7.80;5.53;;;;;;;14.60;100.00;102716.34;5304286;26;20012;-74
2024/04/12 10:52:43;;;;;;;6.88;5.00;;;;;;;14.55;100.00;102713.56;5299987;26;20004;-76
2024/04/12 10:55:09;;;;;;;7.95;4.97;;;;;;;14.59;100.00;102711.22;5274478;26;20720;-72
2024/04/12 10:57:42;;;;;;;6.13;4.95;;;;;;;14.64;100.00;102719.38;5306684;26;20530;-75
2024/04/12 11:00:27;;;;;;;8.77;6.57;;;;;;;14.68;100.00;102726.69;5304744;26;20359;-78
2024/04/12 11:02:59;;;;;;;9.07;6.45;;;;;;;14.67;100.00;102716.97;5327491;26;20009;-77
2024/04/12 11:08:01;;;;;;;11.00;6.85;;;;;;;14.68;100.00;102721.31;5300581;26;20189;-76
2024/04/12 11:10:54;;;;;;;8.60;6.82;;;;;;;14.65;100.00;102707.53;5269262;26;20008;-77
2024/04/12 11:13:34;;;;;;;11.80;7.68;;;;;;;14.67;100.00;102729.66;5299627;26;20381;-72
2024/04/12 11:32:33;;;;;;;;;;;;;;;15.32;100.00;102692.97;5318343;26;20013;-76
2024/04/12 11:35:01;;;;;;;8.43;6.22;;;;;;;15.43;100.00;102695.47;5331488;26;19954;-78
2024/04/12 11:37:28;;;;;;;8.10;6.22;;;;;;;15.46;100.00;102692.28;5255217;26;20016;-79
2024/04/12 11:39:54;;;;;;;9.65;6.22;;;;;;;15.51;100.00;102684.25;5305806;26;20017;-76
2024/04/12 11:42:19;;;;;;;;;;;;;;;15.54;100.00;102691.81;5307980;26;20020;-78
2024/04/12 11:44:47;;;;;;;8.77;6.10;;;;;;;15.61;100.00;102669.19;5284605;26;19926;-78
2024/04/12 11:47:16;;;;;;;7.40;6.07;;;;;;;15.67;100.00;102679.00;5328002;26;20001;-77
2024/04/12 11:49:45;;;;;;;8.00;6.18;;;;;;;15.70;100.00;102683.88;5300440;26;20474;-79
2024/04/12 11:52:17;;;;;;;7.47;5.85;;;;;;;15.70;100.00;102679.28;5310388;26;20055;-78
2024/04/12 11:54:46;;;;;;;6.43;5.38;;;;;;;15.74;100.00;102685.00;5273838;26;20005;-77
2024/04/12 11:57:12;;;;;;;9.10;6.20;;;;;;;15.76;100.00;102678.28;5321303;26;20005;-78
2024/04/12 11:59:38;;;;;;;;;;;;;;;15.89;100.00;102681.63;5282437;26;20024;-77
2024/04/12 12:02:05;;;;;;;6.90;4.88;;;;;;;15.96;100.00;102672.22;5324469;26;19927;-80
2024/04/12 12:04:33;;;;;;;7.50;5.40;;;;;;;16.01;100.00;102666.06;5274752;26;20012;-76
2024/04/12 12:07:04;;;;;;;6.03;4.93;;;;;;;16.06;100.00;102661.50;5327035;26;20001;-77
2024/04/12 12:09:31;;;;;;;7.30;5.57;;;;;;;16.14;100.00;102662.09;5300412;26;20008;-72
2024/04/12 12:12:00;;;;;;;7.93;5.35;;;;;;;16.25;100.00;102651.06;5344675;26;20011;-79
2024/04/12 12:14:26;;;;;;;5.63;4.35;;;;;;;16.40;100.00;102642.25;5304246;26;20875;-80
2024/04/12 12:16:53;;;;;;;7.00;5.03;;;;;;;16.51;100.00;102641.19;5303967;26;20005;-78
2024/04/12 12:19:19;;;;;;;9.05;4.80;;;;;;;16.68;100.00;102642.91;5274295;26;20005;-75
2024/04/12 12:21:45;;;;;;;;;;;;;;;16.78;100.00;102646.47;5302655;26;20001;-76
2024/04/12 12:24:12;;;;;;;4.78;4.03;;;;;;;16.91;100.00;102639.75;5307705;26;20018;-75
2024/04/12 12:26:39;;;;;;;6.38;4.20;;;;;;;17.01;100.00;102647.94;5272760;26;20016;-77
2024/04/12 12:29:06;;;;;;;9.32;3.90;;;;;;;17.06;100.00;102641.69;5277191;26;19997;-77
2024/04/12 12:31:32;;;;;;;6.15;4.72;;;;;;;17.04;100.00;102649.28;5298752;26;20040;-78
2024/04/12 12:33:59;;;;;;;6.72;4.82;;;;;;;17.16;100.00;102652.56;5327484;26;20095;-76
2024/04/12 12:36:27;;;;;;;7.30;4.45;;;;;;;17.28;100.00;102646.91;5304569;26;20049;-80
2024/04/12 12:38:55;;;;;;;5.50;4.50;;;;;;;17.22;100.00;102639.84;5299975;26;20005;-77
2024/04/12 12:41:20;;;;;;;6.15;4.80;;;;;;;17.26;100.00;102639.03;5338238;26;20016;-74
2024/04/12 12:43:47;;;;;;;6.22;4.28;;;;;;;17.26;100.00;102638.22;5308196;26;20619;-75
2024/04/12 12:46:13;;;;;;;5.60;4.43;;;;;;;17.35;100.00;102640.16;5332663;26;20005;-76
2024/04/12 12:48:40;;;;;;;5.28;4.10;;;;;;;17.38;100.00;102627.94;5307970;26;20024;-77